Terminal Aerodrome Forecast
Issued by NWS

Home | Current Version | Previous Version | Text Only | Print | Product List | Glossary On
Versions: 1 2 3 4 5 6 7 8 9 10 11 12 13
000
FTUS45 KTFX 221100
TAFGTF
TAF
KGTF 221122Z 2212/2312 26018KT P6SM BKN100
     FM221800 29016G22KT P6SM VCSH BKN050
     FM230400 25011KT P6SM BKN070=

USA.gov is the U.S. government's official web portal to all federal, state and local government web resources and services.